Terminal Aerodrome Forecast
Issued by NWS Brownsville, TX

Current Version | Previous Version | Text Only | Print | Product List | Glossary On
Versions: 1 2 3 4 5 6 7 8 9 10 11 12 13 14 15 16 17 18 19 20 21 22 23 24 25
000
FTUS44 KBRO 242340
TAFBRO
TAF
KBRO 242340Z 2500/2524 17014G21KT P6SM FEW020 SCT250
     FM250600 15014KT P6SM BKN015
     FM251400 14016G22KT P6SM SCT015 BKN035
     FM251700 15021G27KT P6SM VCTS OVC030CB=

USA.gov is the U.S. government's official web portal to all federal, state and local government web resources and services.